sensor_id;sensor_type;location;lat;lon;timestamp;P1;durP1;ratioP1;P2;durP2;ratioP2
58512;SDS011;44302;47.914;10.642;2022-11-15T07:34:18;6.60;;;4.70;;
58512;SDS011;44302;47.914;10.642;2022-11-15T07:36:44;5.17;;;4.00;;
58512;SDS011;44302;47.914;10.642;2022-11-15T07:39:09;6.93;;;4.13;;
58512;SDS011;44302;47.914;10.642;2022-11-15T07:41:37;11.27;;;4.60;;
58512;SDS011;44302;47.914;10.642;2022-11-15T07:44:03;10.00;;;4.13;;
58512;SDS011;44302;47.914;10.642;2022-11-15T07:46:29;5.93;;;4.07;;
58512;SDS011;44302;47.914;10.642;2022-11-15T07:48:55;7.37;;;3.90;;
58512;SDS011;44302;47.914;10.642;2022-11-15T07:51:22;6.40;;;4.57;;
58512;SDS011;44302;47.914;10.642;2022-11-15T07:53:47;9.90;;;4.83;;
58512;SDS011;44302;47.914;10.642;2022-11-15T07:56:13;8.57;;;3.90;;
58512;SDS011;44302;47.914;10.642;2022-11-15T07:58:38;7.73;;;3.67;;
58512;SDS011;44302;47.914;10.642;2022-11-15T08:01:05;4.83;;;3.00;;
58512;SDS011;44302;47.914;10.642;2022-11-15T08:03:32;3.67;;;3.03;;
58512;SDS011;44302;47.914;10.642;2022-11-15T08:05:58;4.77;;;2.80;;
58512;SDS011;44302;47.914;10.642;2022-11-15T08:08:24;3.97;;;3.03;;
58512;SDS011;44302;47.914;10.642;2022-11-15T08:10:50;9.63;;;3.90;;
58512;SDS011;44302;47.914;10.642;2022-11-15T08:13:15;12.30;;;3.20;;
58512;SDS011;44302;47.914;10.642;2022-11-15T08:15:41;5.30;;;2.80;;
58512;SDS011;44302;47.914;10.642;2022-11-15T08:18:09;11.50;;;2.67;;
58512;SDS011;44302;47.914;10.642;2022-11-15T08:20:37;6.33;;;2.93;;
58512;SDS011;44302;47.914;10.642;2022-11-15T08:23:03;5.17;;;3.17;;
58512;SDS011;44302;47.914;10.642;2022-11-15T08:25:30;4.93;;;3.17;;
58512;SDS011;44302;47.914;10.642;2022-11-15T08:27:59;3.90;;;2.70;;
58512;SDS011;44302;47.914;10.642;2022-11-15T08:30:27;3.13;;;2.50;;
58512;SDS011;44302;47.914;10.642;2022-11-15T08:32:55;3.50;;;2.33;;
58512;SDS011;44302;47.914;10.642;2022-11-15T08:35:22;4.97;;;2.40;;
58512;SDS011;44302;47.914;10.642;2022-11-15T08:37:48;2.80;;;2.40;;
58512;SDS011;44302;47.914;10.642;2022-11-15T08:40:14;4.20;;;2.50;;
58512;SDS011;44302;47.914;10.642;2022-11-15T08:42:40;3.37;;;2.63;;
58512;SDS011;44302;47.914;10.642;2022-11-15T08:45:07;2.97;;;2.47;;
58512;SDS011;44302;47.914;10.642;2022-11-15T08:47:33;3.63;;;2.27;;
58512;SDS011;44302;47.914;10.642;2022-11-15T08:50:00;6.73;;;2.30;;
58512;SDS011;44302;47.914;10.642;2022-11-15T08:52:25;3.43;;;2.17;;
58512;SDS011;44302;47.914;10.642;2022-11-15T08:54:51;6.33;;;2.47;;
58512;SDS011;44302;47.914;10.642;2022-11-15T08:57:17;2.97;;;2.50;;
58512;SDS011;44302;47.914;10.642;2022-11-15T08:59:42;2.83;;;2.03;;
58512;SDS011;44302;47.914;10.642;2022-11-15T09:02:14;4.40;;;2.67;;
58512;SDS011;44302;47.914;10.642;2022-11-15T09:04:41;4.53;;;2.50;;
58512;SDS011;44302;47.914;10.642;2022-11-15T09:07:08;3.83;;;2.50;;
58512;SDS011;44302;47.914;10.642;2022-11-15T09:09:34;4.93;;;2.23;;
58512;SDS011;44302;47.914;10.642;2022-11-15T09:12:00;4.23;;;2.50;;
58512;SDS011;44302;47.914;10.642;2022-11-15T09:14:26;4.00;;;2.40;;
58512;SDS011;44302;47.914;10.642;2022-11-15T09:16:52;3.93;;;2.37;;
58512;SDS011;44302;47.914;10.642;2022-11-15T09:19:17;4.00;;;2.50;;
58512;SDS011;44302;47.914;10.642;2022-11-15T09:21:43;7.67;;;2.97;;
58512;SDS011;44302;47.914;10.642;2022-11-15T09:24:09;5.30;;;2.77;;
58512;SDS011;44302;47.914;10.642;2022-11-15T09:26:34;5.50;;;2.33;;
58512;SDS011;44302;47.914;10.642;2022-11-15T09:29:00;6.30;;;2.77;;
58512;SDS011;44302;47.914;10.642;2022-11-15T09:31:27;3.03;;;2.60;;
58512;SDS011;44302;47.914;10.642;2022-11-15T09:33:54;4.83;;;2.70;;
58512;SDS011;44302;47.914;10.642;2022-11-15T09:36:20;4.07;;;2.50;;
58512;SDS011;44302;47.914;10.642;2022-11-15T09:38:45;5.07;;;2.97;;
58512;SDS011;44302;47.914;10.642;2022-11-15T09:49:01;3.17;;;1.43;;
58512;SDS011;44302;47.914;10.642;2022-11-15T09:51:29;3.30;;;1.70;;
58512;SDS011;44302;47.914;10.642;2022-11-15T09:56:21;2.53;;;1.60;;
58512;SDS011;44302;47.914;10.642;2022-11-15T10:01:22;2.53;;;1.60;;
58512;SDS011;44302;47.914;10.642;2022-11-15T10:03:59;3.50;;;1.67;;
58512;SDS011;44302;47.914;10.642;2022-11-15T10:06:25;2.63;;;1.60;;
58512;SDS011;44302;47.914;10.642;2022-11-15T10:11:21;2.20;;;1.40;;
58512;SDS011;44302;47.914;10.642;2022-11-15T10:13:50;1.53;;;1.20;;
58512;SDS011;44302;47.914;10.642;2022-11-15T10:16:31;3.30;;;1.50;;
58512;SDS011;44302;47.914;10.642;2022-11-15T10:19:17;1.80;;;1.20;;
58512;SDS011;44302;47.914;10.642;2022-11-15T10:24:42;2.50;;;1.40;;
58512;SDS011;44302;47.914;10.642;2022-11-15T10:27:14;2.13;;;1.80;;
58512;SDS011;44302;47.914;10.642;2022-11-15T10:29:48;3.17;;;1.63;;
58512;SDS011;44302;47.914;10.642;2022-11-15T10:32:16;2.23;;;1.60;;
58512;SDS011;44302;47.914;10.642;2022-11-15T10:34:43;1.57;;;1.47;;
58512;SDS011;44302;47.914;10.642;2022-11-15T10:37:09;2.37;;;1.90;;
58512;SDS011;44302;47.914;10.642;2022-11-15T10:39:36;4.70;;;1.93;;
58512;SDS011;44302;47.914;10.642;2022-11-15T10:42:18;4.50;;;1.93;;
58512;SDS011;44302;47.914;10.642;2022-11-15T10:44:54;4.50;;;2.30;;
58512;SDS011;44302;47.914;10.642;2022-11-15T10:49:54;4.77;;;2.10;;
58512;SDS011;44302;47.914;10.642;2022-11-15T10:52:22;3.20;;;2.07;;
58512;SDS011;44302;47.914;10.642;2022-11-15T10:57:18;2.60;;;1.70;;
58512;SDS011;44302;47.914;10.642;2022-11-15T10:59:46;4.10;;;1.70;;
58512;SDS011;44302;47.914;10.642;2022-11-15T11:04:53;5.87;;;1.93;;
58512;SDS011;44302;47.914;10.642;2022-11-15T11:07:20;3.50;;;2.20;;
58512;SDS011;44302;47.914;10.642;2022-11-15T11:09:58;2.80;;;1.70;;
58512;SDS011;44302;47.914;10.642;2022-11-15T11:12:43;4.40;;;2.43;;
58512;SDS011;44302;47.914;10.642;2022-11-15T11:15:09;5.87;;;2.20;;
58512;SDS011;44302;47.914;10.642;2022-11-15T11:17:57;4.10;;;1.87;;
58512;SDS011;44302;47.914;10.642;2022-11-15T11:20:42;3.13;;;1.83;;
58512;SDS011;44302;47.914;10.642;2022-11-15T11:26:26;4.13;;;2.10;;
58512;SDS011;44302;47.914;10.642;2022-11-15T11:34:34;2.10;;;1.90;;
58512;SDS011;44302;47.914;10.642;2022-11-15T11:45:43;4.97;;;1.90;;
58512;SDS011;44302;47.914;10.642;2022-11-15T11:48:41;2.03;;;1.53;;
58512;SDS011;44302;47.914;10.642;2022-11-15T11:51:28;1.40;;;1.30;;
58512;SDS011;44302;47.914;10.642;2022-11-15T11:54:03;2.33;;;1.40;;
58512;SDS011;44302;47.914;10.642;2022-11-15T11:56:43;3.67;;;1.80;;
58512;SDS011;44302;47.914;10.642;2022-11-15T11:59:35;3.87;;;1.80;;
58512;SDS011;44302;47.914;10.642;2022-11-15T12:02:15;4.10;;;1.90;;
58512;SDS011;44302;47.914;10.642;2022-11-15T12:04:51;3.10;;;2.00;;
58512;SDS011;44302;47.914;10.642;2022-11-15T12:07:27;3.50;;;1.80;;
58512;SDS011;44302;47.914;10.642;2022-11-15T12:15:22;4.17;;;2.50;;
58512;SDS011;44302;47.914;10.642;2022-11-15T12:17:51;3.17;;;2.50;;
58512;SDS011;44302;47.914;10.642;2022-11-15T12:20:18;3.17;;;2.00;;
58512;SDS011;44302;47.914;10.642;2022-11-15T12:22:48;4.33;;;1.87;;
58512;SDS011;44302;47.914;10.642;2022-11-15T12:25:41;3.33;;;1.87;;
58512;SDS011;44302;47.914;10.642;2022-11-15T12:28:20;3.10;;;2.70;;
58512;SDS011;44302;47.914;10.642;2022-11-15T12:31:05;2.50;;;2.10;;
58512;SDS011;44302;47.914;10.642;2022-11-15T12:33:44;2.93;;;2.00;;
58512;SDS011;44302;47.914;10.642;2022-11-15T12:41:34;4.53;;;2.47;;
58512;SDS011;44302;47.914;10.642;2022-11-15T12:44:04;4.90;;;4.03;;
58512;SDS011;44302;47.914;10.642;2022-11-15T13:02:21;4.27;;;3.00;;
58512;SDS011;44302;47.914;10.642;2022-11-15T13:04:53;2.97;;;2.20;;
58512;SDS011;44302;47.914;10.642;2022-11-15T13:17:45;6.13;;;2.80;;
58512;SDS011;44302;47.914;10.642;2022-11-15T13:22:41;3.67;;;2.30;;
58512;SDS011;44302;47.914;10.642;2022-11-15T13:30:59;6.60;;;2.03;;
58512;SDS011;44302;47.914;10.642;2022-11-15T13:33:41;4.60;;;2.47;;
58512;SDS011;44302;47.914;10.642;2022-11-15T13:36:12;3.83;;;1.83;;
58512;SDS011;44302;47.914;10.642;2022-11-15T13:38:40;3.97;;;1.93;;
58512;SDS011;44302;47.914;10.642;2022-11-15T13:41:20;3.70;;;2.57;;
58512;SDS011;44302;47.914;10.642;2022-11-15T13:43:52;2.97;;;2.50;;
58512;SDS011;44302;47.914;10.642;2022-11-15T13:46:37;2.90;;;2.57;;
58512;SDS011;44302;47.914;10.642;2022-11-15T13:49:03;8.13;;;2.90;;
58512;SDS011;44302;47.914;10.642;2022-11-15T13:51:42;4.40;;;2.57;;
58512;SDS011;44302;47.914;10.642;2022-11-15T13:57:29;4.13;;;2.60;;
58512;SDS011;44302;47.914;10.642;2022-11-15T13:59:30;5.53;;;3.07;;
58512;SDS011;44302;47.914;10.642;2022-11-15T14:02:11;5.47;;;3.30;;
58512;SDS011;44302;47.914;10.642;2022-11-15T14:04:49;4.23;;;2.67;;
58512;SDS011;44302;47.914;10.642;2022-11-15T14:07:21;4.97;;;4.20;;
58512;SDS011;44302;47.914;10.642;2022-11-15T14:09:49;3.53;;;2.77;;
58512;SDS011;44302;47.914;10.642;2022-11-15T14:14:58;5.20;;;2.70;;
58512;SDS011;44302;47.914;10.642;2022-11-15T14:19:53;8.13;;;4.13;;
58512;SDS011;44302;47.914;10.642;2022-11-15T14:27:44;5.63;;;3.23;;
58512;SDS011;44302;47.914;10.642;2022-11-15T14:30:29;3.97;;;3.20;;
58512;SDS011;44302;47.914;10.642;2022-11-15T14:32:54;5.33;;;3.47;;
58512;SDS011;44302;47.914;10.642;2022-11-15T14:35:21;4.67;;;3.70;;
58512;SDS011;44302;47.914;10.642;2022-11-15T14:37:48;4.03;;;3.63;;
58512;SDS011;44302;47.914;10.642;2022-11-15T14:40:18;5.90;;;3.80;;
58512;SDS011;44302;47.914;10.642;2022-11-15T14:42:45;4.73;;;3.47;;
58512;SDS011;44302;47.914;10.642;2022-11-15T14:45:19;6.27;;;3.60;;
58512;SDS011;44302;47.914;10.642;2022-11-15T14:47:47;4.53;;;2.87;;
58512;SDS011;44302;47.914;10.642;2022-11-15T14:50:14;3.30;;;2.80;;
58512;SDS011;44302;47.914;10.642;2022-11-15T14:52:41;4.53;;;2.93;;
58512;SDS011;44302;47.914;10.642;2022-11-15T14:55:21;7.00;;;3.03;;
58512;SDS011;44302;47.914;10.642;2022-11-15T14:57:49;6.93;;;3.30;;
58512;SDS011;44302;47.914;10.642;2022-11-15T15:00:15;10.10;;;3.10;;
58512;SDS011;44302;47.914;10.642;2022-11-15T15:02:42;7.80;;;3.00;;
58512;SDS011;44302;47.914;10.642;2022-11-15T15:05:19;10.93;;;3.87;;
58512;SDS011;44302;47.914;10.642;2022-11-15T15:07:49;4.93;;;3.60;;
58512;SDS011;44302;47.914;10.642;2022-11-15T15:10:17;4.57;;;2.80;;
58512;SDS011;44302;47.914;10.642;2022-11-15T15:12:44;4.43;;;3.30;;
58512;SDS011;44302;47.914;10.642;2022-11-15T15:15:14;4.77;;;3.30;;
58512;SDS011;44302;47.914;10.642;2022-11-15T15:17:42;4.87;;;3.67;;
58512;SDS011;44302;47.914;10.642;2022-11-15T15:20:09;6.00;;;4.27;;
58512;SDS011;44302;47.914;10.642;2022-11-15T15:22:35;5.10;;;3.80;;
58512;SDS011;44302;47.914;10.642;2022-11-15T15:25:02;6.93;;;4.03;;
58512;SDS011;44302;47.914;10.642;2022-11-15T15:27:29;6.90;;;4.70;;
58512;SDS011;44302;47.914;10.642;2022-11-15T15:29:54;7.77;;;3.53;;
58512;SDS011;44302;47.914;10.642;2022-11-15T15:32:20;14.50;;;4.80;;
58512;SDS011;44302;47.914;10.642;2022-11-15T15:34:46;8.80;;;4.33;;
58512;SDS011;44302;47.914;10.642;2022-11-15T15:39:43;13.50;;;7.53;;
58512;SDS011;44302;47.914;10.642;2022-11-15T15:42:09;18.70;;;8.50;;
58512;SDS011;44302;47.914;10.642;2022-11-15T15:44:34;21.07;;;10.40;;
58512;SDS011;44302;47.914;10.642;2022-11-15T15:47:00;10.37;;;5.07;;
58512;SDS011;44302;47.914;10.642;2022-11-15T15:49:26;9.63;;;4.20;;
58512;SDS011;44302;47.914;10.642;2022-11-15T15:51:51;6.23;;;4.37;;
58512;SDS011;44302;47.914;10.642;2022-11-15T15:54:17;50.40;;;21.40;;
58512;SDS011;44302;47.914;10.642;2022-11-15T15:56:43;8.83;;;6.27;;
58512;SDS011;44302;47.914;10.642;2022-11-15T15:59:08;8.80;;;6.10;;
58512;SDS011;44302;47.914;10.642;2022-11-15T16:01:34;14.23;;;8.37;;
58512;SDS011;44302;47.914;10.642;2022-11-15T16:03:59;13.30;;;7.47;;
58512;SDS011;44302;47.914;10.642;2022-11-15T16:06:35;9.47;;;5.10;;
58512;SDS011;44302;47.914;10.642;2022-11-15T16:09:02;4.37;;;3.37;;
58512;SDS011;44302;47.914;10.642;2022-11-15T16:11:28;9.03;;;4.03;;
58512;SDS011;44302;47.914;10.642;2022-11-15T16:13:53;8.37;;;4.50;;
58512;SDS011;44302;47.914;10.642;2022-11-15T16:16:19;9.13;;;6.03;;
58512;SDS011;44302;47.914;10.642;2022-11-15T16:18:46;12.93;;;8.07;;
58512;SDS011;44302;47.914;10.642;2022-11-15T16:21:12;11.77;;;8.27;;
58512;SDS011;44302;47.914;10.642;2022-11-15T16:23:38;13.33;;;9.43;;
58512;SDS011;44302;47.914;10.642;2022-11-15T16:26:09;8.80;;;7.73;;
58512;SDS011;44302;47.914;10.642;2022-11-15T16:28:49;11.10;;;5.87;;
58512;SDS011;44302;47.914;10.642;2022-11-15T16:31:15;10.97;;;6.77;;
58512;SDS011;44302;47.914;10.642;2022-11-15T16:33:43;8.73;;;6.53;;
58512;SDS011;44302;47.914;10.642;2022-11-15T16:36:20;12.27;;;7.47;;
58512;SDS011;44302;47.914;10.642;2022-11-15T16:38:46;16.07;;;7.93;;
58512;SDS011;44302;47.914;10.642;2022-11-15T16:41:12;8.37;;;6.40;;
58512;SDS011;44302;47.914;10.642;2022-11-15T16:43:38;9.97;;;6.87;;
58512;SDS011;44302;47.914;10.642;2022-11-15T16:46:06;8.07;;;5.00;;
58512;SDS011;44302;47.914;10.642;2022-11-15T16:48:37;8.50;;;6.13;;
58512;SDS011;44302;47.914;10.642;2022-11-15T16:51:04;12.93;;;7.93;;
58512;SDS011;44302;47.914;10.642;2022-11-15T16:53:30;14.63;;;8.63;;
58512;SDS011;44302;47.914;10.642;2022-11-15T16:55:55;17.17;;;9.30;;
58512;SDS011;44302;47.914;10.642;2022-11-15T16:58:22;19.57;;;12.40;;
58512;SDS011;44302;47.914;10.642;2022-11-15T17:00:51;28.07;;;16.20;;
58512;SDS011;44302;47.914;10.642;2022-11-15T17:03:18;35.20;;;19.07;;
58512;SDS011;44302;47.914;10.642;2022-11-15T17:05:44;21.20;;;14.07;;
58512;SDS011;44302;47.914;10.642;2022-11-15T17:08:09;17.00;;;10.90;;
58512;SDS011;44302;47.914;10.642;2022-11-15T17:10:37;20.73;;;11.93;;
58512;SDS011;44302;47.914;10.642;2022-11-15T17:13:05;23.67;;;16.60;;
58512;SDS011;44302;47.914;10.642;2022-11-15T17:15:31;22.53;;;14.13;;
58512;SDS011;44302;47.914;10.642;2022-11-15T17:17:56;11.23;;;6.83;;
58512;SDS011;44302;47.914;10.642;2022-11-15T17:20:23;8.27;;;6.83;;
58512;SDS011;44302;47.914;10.642;2022-11-15T17:22:49;8.70;;;6.33;;
58512;SDS011;44302;47.914;10.642;2022-11-15T17:25:16;8.70;;;6.63;;
58512;SDS011;44302;47.914;10.642;2022-11-15T17:27:42;10.13;;;5.97;;
58512;SDS011;44302;47.914;10.642;2022-11-15T17:30:09;8.63;;;6.33;;
58512;SDS011;44302;47.914;10.642;2022-11-15T17:32:39;16.23;;;6.83;;
58512;SDS011;44302;47.914;10.642;2022-11-15T17:35:05;11.10;;;6.90;;
58512;SDS011;44302;47.914;10.642;2022-11-15T17:37:31;11.27;;;7.13;;
58512;SDS011;44302;47.914;10.642;2022-11-15T17:39:57;8.87;;;6.90;;
58512;SDS011;44302;47.914;10.642;2022-11-15T17:42:23;9.87;;;6.40;;
58512;SDS011;44302;47.914;10.642;2022-11-15T17:44:48;10.37;;;5.83;;
58512;SDS011;44302;47.914;10.642;2022-11-15T17:47:14;9.43;;;5.73;;
58512;SDS011;44302;47.914;10.642;2022-11-15T17:49:40;8.53;;;5.83;;
58512;SDS011;44302;47.914;10.642;2022-11-15T17:52:05;7.93;;;5.73;;
58512;SDS011;44302;47.914;10.642;2022-11-15T17:54:32;9.00;;;5.90;;
58512;SDS011;44302;47.914;10.642;2022-11-15T17:56:57;10.97;;;6.57;;
58512;SDS011;44302;47.914;10.642;2022-11-15T17:59:23;11.47;;;6.57;;
58512;SDS011;44302;47.914;10.642;2022-11-15T18:01:49;9.23;;;6.57;;
58512;SDS011;44302;47.914;10.642;2022-11-15T18:04:15;11.60;;;6.73;;
58512;SDS011;44302;47.914;10.642;2022-11-15T18:06:41;10.57;;;6.97;;
58512;SDS011;44302;47.914;10.642;2022-11-15T18:09:07;9.67;;;6.53;;
58512;SDS011;44302;47.914;10.642;2022-11-15T18:11:37;10.50;;;7.10;;
58512;SDS011;44302;47.914;10.642;2022-11-15T18:14:06;10.90;;;8.07;;
58512;SDS011;44302;47.914;10.642;2022-11-15T18:16:35;11.10;;;7.60;;
58512;SDS011;44302;47.914;10.642;2022-11-15T18:19:02;11.00;;;7.57;;
58512;SDS011;44302;47.914;10.642;2022-11-15T18:21:35;9.20;;;7.13;;
58512;SDS011;44302;47.914;10.642;2022-11-15T18:24:21;11.20;;;7.83;;
58512;SDS011;44302;47.914;10.642;2022-11-15T18:26:47;16.93;;;7.77;;
58512;SDS011;44302;47.914;10.642;2022-11-15T18:29:13;17.27;;;15.57;;
58512;SDS011;44302;47.914;10.642;2022-11-15T18:31:39;13.27;;;9.60;;
58512;SDS011;44302;47.914;10.642;2022-11-15T18:34:05;36.90;;;20.13;;
58512;SDS011;44302;47.914;10.642;2022-11-15T18:36:31;64.87;;;37.30;;
58512;SDS011;44302;47.914;10.642;2022-11-15T18:38:57;58.70;;;45.07;;
58512;SDS011;44302;47.914;10.642;2022-11-15T18:41:26;45.23;;;29.03;;
58512;SDS011;44302;47.914;10.642;2022-11-15T18:43:53;15.07;;;11.17;;
58512;SDS011;44302;47.914;10.642;2022-11-15T18:46:21;23.13;;;13.93;;
58512;SDS011;44302;47.914;10.642;2022-11-15T18:48:48;15.53;;;9.73;;
58512;SDS011;44302;47.914;10.642;2022-11-15T18:51:16;10.10;;;6.87;;
58512;SDS011;44302;47.914;10.642;2022-11-15T18:53:43;10.90;;;7.30;;
58512;SDS011;44302;47.914;10.642;2022-11-15T18:56:13;11.17;;;7.80;;
58512;SDS011;44302;47.914;10.642;2022-11-15T18:58:42;12.17;;;7.03;;
58512;SDS011;44302;47.914;10.642;2022-11-15T19:01:10;10.20;;;7.63;;
58512;SDS011;44302;47.914;10.642;2022-11-15T19:03:38;11.90;;;7.30;;
58512;SDS011;44302;47.914;10.642;2022-11-15T19:06:07;9.43;;;6.93;;
58512;SDS011;44302;47.914;10.642;2022-11-15T19:08:34;9.47;;;7.40;;
58512;SDS011;44302;47.914;10.642;2022-11-15T19:11:05;9.50;;;7.23;;
58512;SDS011;44302;47.914;10.642;2022-11-15T19:13:35;11.77;;;8.27;;
58512;SDS011;44302;47.914;10.642;2022-11-15T19:16:01;9.57;;;6.90;;
58512;SDS011;44302;47.914;10.642;2022-11-15T19:18:28;8.93;;;6.87;;
58512;SDS011;44302;47.914;10.642;2022-11-15T19:20:55;11.47;;;6.67;;
58512;SDS011;44302;47.914;10.642;2022-11-15T19:23:22;15.40;;;7.10;;
58512;SDS011;44302;47.914;10.642;2022-11-15T19:25:58;9.50;;;6.43;;
58512;SDS011;44302;47.914;10.642;2022-11-15T19:28:25;11.77;;;6.70;;
58512;SDS011;44302;47.914;10.642;2022-11-15T19:30:51;10.77;;;7.17;;
58512;SDS011;44302;47.914;10.642;2022-11-15T19:33:18;12.93;;;7.67;;
58512;SDS011;44302;47.914;10.642;2022-11-15T19:35:45;13.57;;;7.77;;
58512;SDS011;44302;47.914;10.642;2022-11-15T19:38:11;9.87;;;7.30;;
58512;SDS011;44302;47.914;10.642;2022-11-15T19:40:38;10.83;;;7.10;;
58512;SDS011;44302;47.914;10.642;2022-11-15T19:43:04;9.70;;;6.43;;
58512;SDS011;44302;47.914;10.642;2022-11-15T19:45:29;8.87;;;6.27;;
58512;SDS011;44302;47.914;10.642;2022-11-15T19:47:56;9.87;;;6.30;;
58512;SDS011;44302;47.914;10.642;2022-11-15T19:50:23;11.03;;;6.83;;
58512;SDS011;44302;47.914;10.642;2022-11-15T19:52:48;12.13;;;7.27;;
58512;SDS011;44302;47.914;10.642;2022-11-15T19:55:14;8.00;;;6.10;;
58512;SDS011;44302;47.914;10.642;2022-11-15T19:57:40;8.80;;;6.73;;
58512;SDS011;44302;47.914;10.642;2022-11-15T20:00:05;7.00;;;5.90;;
58512;SDS011;44302;47.914;10.642;2022-11-15T20:02:32;12.93;;;7.53;;
58512;SDS011;44302;47.914;10.642;2022-11-15T20:04:57;17.40;;;10.13;;
58512;SDS011;44302;47.914;10.642;2022-11-15T20:07:23;62.33;;;31.30;;
58512;SDS011;44302;47.914;10.642;2022-11-15T20:09:49;20.23;;;12.37;;
58512;SDS011;44302;47.914;10.642;2022-11-15T20:12:14;55.87;;;31.90;;
58512;SDS011;44302;47.914;10.642;2022-11-15T20:14:40;70.70;;;36.10;;
58512;SDS011;44302;47.914;10.642;2022-11-15T20:17:06;75.63;;;39.67;;
58512;SDS011;44302;47.914;10.642;2022-11-15T20:19:31;32.83;;;18.43;;
58512;SDS011;44302;47.914;10.642;2022-11-15T20:21:57;37.73;;;21.37;;
58512;SDS011;44302;47.914;10.642;2022-11-15T20:24:23;28.67;;;16.90;;
58512;SDS011;44302;47.914;10.642;2022-11-15T20:26:49;47.33;;;26.27;;
58512;SDS011;44302;47.914;10.642;2022-11-15T20:29:14;20.43;;;13.93;;
58512;SDS011;44302;47.914;10.642;2022-11-15T20:31:40;14.93;;;10.13;;
58512;SDS011;44302;47.914;10.642;2022-11-15T20:34:07;10.67;;;7.60;;
58512;SDS011;44302;47.914;10.642;2022-11-15T20:36:33;9.57;;;6.70;;
58512;SDS011;44302;47.914;10.642;2022-11-15T20:38:59;9.30;;;6.17;;
58512;SDS011;44302;47.914;10.642;2022-11-15T20:41:25;9.30;;;6.80;;
58512;SDS011;44302;47.914;10.642;2022-11-15T20:43:51;12.97;;;9.40;;
58512;SDS011;44302;47.914;10.642;2022-11-15T20:46:17;8.53;;;6.83;;
